sensor_id;sensor_type;location;lat;lon;timestamp;pressure;altitude;pressure_sealevel;temperature;humidity
3812;BME280;1921;49.368;11.068;2023-08-06T00:01:32;96916.66;;;15.87;100.00
3812;BME280;1921;49.368;11.068;2023-08-06T00:03:58;96974.19;;;16.19;100.00
3812;BME280;1921;49.368;11.068;2023-08-06T00:06:25;96975.91;;;16.13;100.00
3812;BME280;1921;49.368;11.068;2023-08-06T00:08:51;96790.91;;;14.84;100.00
3812;BME280;1921;49.368;11.068;2023-08-06T00:11:17;96783.41;;;14.88;100.00
3812;BME280;1921;49.368;11.068;2023-08-06T00:13:42;96720.56;;;14.33;100.00
3812;BME280;1921;49.368;11.068;2023-08-06T00:16:15;96525.13;;;12.80;100.00
3812;BME280;1921;49.368;11.068;2023-08-06T00:18:43;96742.91;;;14.53;100.00
3812;BME280;1921;49.368;11.068;2023-08-06T00:21:09;96858.13;;;15.15;100.00
3812;BME280;1921;49.368;11.068;2023-08-06T00:23:37;96903.38;;;15.59;100.00
3812;BME280;1921;49.368;11.068;2023-08-06T00:26:03;96871.00;;;15.47;100.00
3812;BME280;1921;49.368;11.068;2023-08-06T00:28:29;96873.72;;;15.52;100.00
3812;BME280;1921;49.368;11.068;2023-08-06T00:30:55;96853.50;;;15.41;100.00
3812;BME280;1921;49.368;11.068;2023-08-06T00:33:22;96886.72;;;15.65;100.00
3812;BME280;1921;49.368;11.068;2023-08-06T00:35:48;96857.75;;;15.53;100.00
3812;BME280;1921;49.368;11.068;2023-08-06T00:38:14;96905.91;;;15.77;100.00
3812;BME280;1921;49.368;11.068;2023-08-06T00:40:40;96893.59;;;15.78;100.00
3812;BME280;1921;49.368;11.068;2023-08-06T00:43:06;96896.88;;;15.73;100.00
3812;BME280;1921;49.368;11.068;2023-08-06T00:45:35;96837.75;;;15.41;100.00
3812;BME280;1921;49.368;11.068;2023-08-06T00:48:03;96848.34;;;15.46;100.00
3812;BME280;1921;49.368;11.068;2023-08-06T00:50:29;96872.50;;;15.54;100.00
3812;BME280;1921;49.368;11.068;2023-08-06T00:52:55;96858.44;;;15.49;100.00
3812;BME280;1921;49.368;11.068;2023-08-06T00:55:21;96847.22;;;15.42;100.00
3812;BME280;1921;49.368;11.068;2023-08-06T00:57:47;96893.91;;;15.70;100.00
3812;BME280;1921;49.368;11.068;2023-08-06T01:00:13;96864.25;;;15.51;100.00
3812;BME280;1921;49.368;11.068;2023-08-06T01:02:39;96883.97;;;15.72;100.00
3812;BME280;1921;49.368;11.068;2023-08-06T01:05:05;96897.94;;;15.84;100.00
3812;BME280;1921;49.368;11.068;2023-08-06T01:07:48;96918.03;;;16.02;100.00
3812;BME280;1921;49.368;11.068;2023-08-06T01:13:25;96928.47;;;15.97;100.00
3812;BME280;1921;49.368;11.068;2023-08-06T01:15:55;96878.84;;;15.65;100.00
3812;BME280;1921;49.368;11.068;2023-08-06T01:18:28;96903.19;;;15.84;100.00
3812;BME280;1921;49.368;11.068;2023-08-06T01:20:53;96884.78;;;15.72;100.00
3812;BME280;1921;49.368;11.068;2023-08-06T01:23:19;96855.94;;;15.54;100.00
3812;BME280;1921;49.368;11.068;2023-08-06T01:28:48;96899.84;;;15.88;100.00
3812;BME280;1921;49.368;11.068;2023-08-06T01:31:30;96892.44;;;15.74;100.00
3812;BME280;1921;49.368;11.068;2023-08-06T01:34:01;96765.03;;;14.99;100.00
3812;BME280;1921;49.368;11.068;2023-08-06T01:36:28;96833.50;;;15.40;100.00
3812;BME280;1921;49.368;11.068;2023-08-06T01:38:55;96846.75;;;15.45;100.00
3812;BME280;1921;49.368;11.068;2023-08-06T01:41:21;96706.53;;;14.69;100.00
3812;BME280;1921;49.368;11.068;2023-08-06T01:43:46;96840.97;;;15.54;100.00
3812;BME280;1921;49.368;11.068;2023-08-06T01:46:12;96850.75;;;15.35;100.00
3812;BME280;1921;49.368;11.068;2023-08-06T01:48:38;96716.31;;;14.50;100.00
3812;BME280;1921;49.368;11.068;2023-08-06T01:51:07;96715.28;;;14.51;100.00
3812;BME280;1921;49.368;11.068;2023-08-06T01:53:33;96474.72;;;13.03;100.00
3812;BME280;1921;49.368;11.068;2023-08-06T01:55:59;96771.53;;;14.85;100.00
3812;BME280;1921;49.368;11.068;2023-08-06T01:58:25;96578.59;;;13.57;100.00
3812;BME280;1921;49.368;11.068;2023-08-06T02:00:50;96639.09;;;13.86;100.00
3812;BME280;1921;49.368;11.068;2023-08-06T02:03:16;96669.31;;;14.18;100.00
3812;BME280;1921;49.368;11.068;2023-08-06T02:05:42;96605.66;;;13.69;100.00
3812;BME280;1921;49.368;11.068;2023-08-06T02:08:08;96668.47;;;14.06;100.00
3812;BME280;1921;49.368;11.068;2023-08-06T02:10:34;96622.84;;;13.95;100.00
3812;BME280;1921;49.368;11.068;2023-08-06T02:12:59;96729.81;;;14.53;100.00
3812;BME280;1921;49.368;11.068;2023-08-06T02:15:25;96786.38;;;14.91;100.00
3812;BME280;1921;49.368;11.068;2023-08-06T02:17:51;96761.19;;;14.72;100.00
3812;BME280;1921;49.368;11.068;2023-08-06T02:20:17;96745.31;;;14.55;100.00
3812;BME280;1921;49.368;11.068;2023-08-06T02:22:42;96582.31;;;13.50;100.00
3812;BME280;1921;49.368;11.068;2023-08-06T02:25:08;96762.78;;;14.61;100.00
3812;BME280;1921;49.368;11.068;2023-08-06T02:27:34;96542.19;;;13.37;100.00
3812;BME280;1921;49.368;11.068;2023-08-06T02:30:00;96697.22;;;14.43;100.00
3812;BME280;1921;49.368;11.068;2023-08-06T02:32:25;96652.88;;;14.11;100.00
3812;BME280;1921;49.368;11.068;2023-08-06T02:34:51;96622.50;;;13.92;100.00
3812;BME280;1921;49.368;11.068;2023-08-06T02:37:17;96694.75;;;14.18;100.00
3812;BME280;1921;49.368;11.068;2023-08-06T02:39:43;96782.69;;;14.80;100.00
3812;BME280;1921;49.368;11.068;2023-08-06T02:42:09;96528.94;;;13.32;100.00
3812;BME280;1921;49.368;11.068;2023-08-06T02:44:35;96670.91;;;14.19;100.00
3812;BME280;1921;49.368;11.068;2023-08-06T02:47:01;96601.63;;;13.85;100.00
3812;BME280;1921;49.368;11.068;2023-08-06T02:49:27;96621.50;;;14.05;100.00
3812;BME280;1921;49.368;11.068;2023-08-06T02:51:53;96621.56;;;13.86;100.00
3812;BME280;1921;49.368;11.068;2023-08-06T02:54:19;96660.41;;;14.19;100.00
3812;BME280;1921;49.368;11.068;2023-08-06T02:56:45;96501.91;;;13.02;100.00
3812;BME280;1921;49.368;11.068;2023-08-06T02:59:12;96598.06;;;13.80;100.00
3812;BME280;1921;49.368;11.068;2023-08-06T03:01:39;96731.69;;;14.46;100.00
3812;BME280;1921;49.368;11.068;2023-08-06T03:04:05;96564.25;;;13.60;100.00
3812;BME280;1921;49.368;11.068;2023-08-06T03:06:31;96510.75;;;13.37;100.00
3812;BME280;1921;49.368;11.068;2023-08-06T03:08:57;96683.00;;;14.50;100.00
3812;BME280;1921;49.368;11.068;2023-08-06T03:11:23;96500.63;;;13.41;100.00
3812;BME280;1921;49.368;11.068;2023-08-06T03:13:48;96638.50;;;14.14;100.00
3812;BME280;1921;49.368;11.068;2023-08-06T03:16:14;96598.34;;;14.01;100.00
3812;BME280;1921;49.368;11.068;2023-08-06T03:18:40;96622.88;;;14.07;100.00
3812;BME280;1921;49.368;11.068;2023-08-06T03:21:06;96662.28;;;14.31;100.00
3812;BME280;1921;49.368;11.068;2023-08-06T03:23:32;96623.53;;;14.02;100.00
3812;BME280;1921;49.368;11.068;2023-08-06T03:26:02;96618.53;;;14.01;100.00
3812;BME280;1921;49.368;11.068;2023-08-06T03:28:28;96715.13;;;14.46;100.00
3812;BME280;1921;49.368;11.068;2023-08-06T03:31:01;96591.38;;;13.65;100.00
3812;BME280;1921;49.368;11.068;2023-08-06T03:33:27;96464.63;;;12.88;100.00
3812;BME280;1921;49.368;11.068;2023-08-06T03:35:53;96660.03;;;14.04;100.00
3812;BME280;1921;49.368;11.068;2023-08-06T03:38:19;96734.31;;;14.28;100.00
3812;BME280;1921;49.368;11.068;2023-08-06T03:40:46;96635.91;;;13.65;100.00
3812;BME280;1921;49.368;11.068;2023-08-06T03:43:12;96552.38;;;13.27;100.00
3812;BME280;1921;49.368;11.068;2023-08-06T03:45:38;96445.25;;;12.59;100.00
3812;BME280;1921;49.368;11.068;2023-08-06T03:48:04;96698.09;;;14.07;100.00
3812;BME280;1921;49.368;11.068;2023-08-06T03:50:30;96686.34;;;13.97;100.00
3812;BME280;1921;49.368;11.068;2023-08-06T03:52:55;96440.06;;;12.34;100.00
3812;BME280;1921;49.368;11.068;2023-08-06T03:55:21;96556.94;;;12.95;100.00
3812;BME280;1921;49.368;11.068;2023-08-06T03:57:47;96706.09;;;13.82;100.00
3812;BME280;1921;49.368;11.068;2023-08-06T04:00:13;96492.69;;;12.44;100.00
3812;BME280;1921;49.368;11.068;2023-08-06T04:02:39;96532.59;;;12.76;100.00
3812;BME280;1921;49.368;11.068;2023-08-06T04:05:05;96663.84;;;13.71;100.00
3812;BME280;1921;49.368;11.068;2023-08-06T04:07:31;96627.66;;;13.32;100.00
3812;BME280;1921;49.368;11.068;2023-08-06T04:10:02;96556.78;;;12.90;100.00
3812;BME280;1921;49.368;11.068;2023-08-06T04:12:29;96617.53;;;13.17;100.00
3812;BME280;1921;49.368;11.068;2023-08-06T04:14:57;96619.53;;;13.15;100.00
3812;BME280;1921;49.368;11.068;2023-08-06T04:17:22;96386.13;;;11.78;100.00
3812;BME280;1921;49.368;11.068;2023-08-06T04:19:54;96499.28;;;12.47;100.00
3812;BME280;1921;49.368;11.068;2023-08-06T04:22:21;96710.38;;;13.76;100.00
3812;BME280;1921;49.368;11.068;2023-08-06T04:24:47;96589.22;;;13.07;100.00
3812;BME280;1921;49.368;11.068;2023-08-06T04:27:14;96680.91;;;13.44;100.00
3812;BME280;1921;49.368;11.068;2023-08-06T04:29:40;96465.56;;;12.20;100.00
3812;BME280;1921;49.368;11.068;2023-08-06T04:32:08;96547.19;;;12.84;100.00
3812;BME280;1921;49.368;11.068;2023-08-06T04:34:36;96727.47;;;13.97;100.00
3812;BME280;1921;49.368;11.068;2023-08-06T04:37:02;96539.19;;;12.60;100.00
3812;BME280;1921;49.368;11.068;2023-08-06T04:39:29;96610.91;;;13.14;100.00
3812;BME280;1921;49.368;11.068;2023-08-06T04:41:56;96644.47;;;13.42;100.00
3812;BME280;1921;49.368;11.068;2023-08-06T04:44:25;96403.88;;;11.69;100.00
3812;BME280;1921;49.368;11.068;2023-08-06T04:46:51;96499.44;;;12.52;100.00
3812;BME280;1921;49.368;11.068;2023-08-06T04:49:18;96577.31;;;12.93;100.00
3812;BME280;1921;49.368;11.068;2023-08-06T04:51:43;96531.22;;;12.74;100.00
3812;BME280;1921;49.368;11.068;2023-08-06T04:54:10;96653.84;;;13.32;100.00
3812;BME280;1921;49.368;11.068;2023-08-06T04:56:35;96628.59;;;13.37;100.00
3812;BME280;1921;49.368;11.068;2023-08-06T04:59:01;96640.03;;;13.61;100.00
3812;BME280;1921;49.368;11.068;2023-08-06T05:01:27;96674.66;;;14.12;100.00
3812;BME280;1921;49.368;11.068;2023-08-06T05:03:54;96563.19;;;13.49;100.00
3812;BME280;1921;49.368;11.068;2023-08-06T05:06:19;96557.81;;;13.74;100.00
3812;BME280;1921;49.368;11.068;2023-08-06T05:08:45;96658.31;;;14.40;100.00
3812;BME280;1921;49.368;11.068;2023-08-06T05:11:11;96631.31;;;14.51;100.00
3812;BME280;1921;49.368;11.068;2023-08-06T05:13:36;96598.84;;;14.10;100.00
3812;BME280;1921;49.368;11.068;2023-08-06T05:16:02;96483.66;;;13.73;100.00
3812;BME280;1921;49.368;11.068;2023-08-06T05:18:28;96567.94;;;14.12;100.00
3812;BME280;1921;49.368;11.068;2023-08-06T05:20:56;96615.03;;;14.49;100.00
3812;BME280;1921;49.368;11.068;2023-08-06T05:23:21;96632.41;;;14.85;100.00
3812;BME280;1921;49.368;11.068;2023-08-06T05:25:47;96602.50;;;14.74;100.00
3812;BME280;1921;49.368;11.068;2023-08-06T05:28:13;96669.38;;;15.07;100.00
3812;BME280;1921;49.368;11.068;2023-08-06T05:30:40;96317.31;;;12.87;100.00
3812;BME280;1921;49.368;11.068;2023-08-06T05:33:06;96685.59;;;15.16;100.00
3812;BME280;1921;49.368;11.068;2023-08-06T05:35:32;96532.19;;;14.41;100.00
3812;BME280;1921;49.368;11.068;2023-08-06T05:37:58;96586.31;;;14.66;100.00
3812;BME280;1921;49.368;11.068;2023-08-06T05:40:23;96607.50;;;14.64;100.00
3812;BME280;1921;49.368;11.068;2023-08-06T05:42:53;96463.16;;;13.82;100.00
3812;BME280;1921;49.368;11.068;2023-08-06T05:45:19;96581.72;;;14.61;100.00
3812;BME280;1921;49.368;11.068;2023-08-06T05:47:45;96579.09;;;14.85;100.00
3812;BME280;1921;49.368;11.068;2023-08-06T05:50:11;96541.78;;;14.71;100.00
3812;BME280;1921;49.368;11.068;2023-08-06T05:52:37;96590.81;;;15.29;100.00
3812;BME280;1921;49.368;11.068;2023-08-06T05:55:03;96561.50;;;15.49;100.00
3812;BME280;1921;49.368;11.068;2023-08-06T05:57:28;96526.03;;;15.92;100.00
3812;BME280;1921;49.368;11.068;2023-08-06T05:59:54;96525.53;;;16.45;100.00
3812;BME280;1921;49.368;11.068;2023-08-06T06:02:20;96583.94;;;17.36;100.00
3812;BME280;1921;49.368;11.068;2023-08-06T06:04:45;96707.84;;;19.47;100.00
3812;BME280;1921;49.368;11.068;2023-08-06T06:07:11;96611.06;;;19.51;90.05
3812;BME280;1921;49.368;11.068;2023-08-06T06:09:37;96621.88;;;20.33;88.49
3812;BME280;1921;49.368;11.068;2023-08-06T06:12:05;96584.78;;;20.79;84.39
3812;BME280;1921;49.368;11.068;2023-08-06T06:14:31;96547.41;;;20.85;82.16
3812;BME280;1921;49.368;11.068;2023-08-06T06:16:58;96488.97;;;20.26;73.06
3812;BME280;1921;49.368;11.068;2023-08-06T06:19:24;96595.94;;;20.60;76.65
3812;BME280;1921;49.368;11.068;2023-08-06T06:21:50;96665.91;;;20.64;78.69
3812;BME280;1921;49.368;11.068;2023-08-06T06:24:15;96702.97;;;20.59;80.08
3812;BME280;1921;49.368;11.068;2023-08-06T06:26:41;96754.56;;;20.41;81.07
3812;BME280;1921;49.368;11.068;2023-08-06T06:29:07;96718.41;;;19.47;83.20
3812;BME280;1921;49.368;11.068;2023-08-06T06:31:33;96585.09;;;17.94;87.48
3812;BME280;1921;49.368;11.068;2023-08-06T06:33:58;96724.41;;;18.19;89.40
3812;BME280;1921;49.368;11.068;2023-08-06T06:36:24;96697.13;;;17.65;93.82
3812;BME280;1921;49.368;11.068;2023-08-06T06:38:50;96675.06;;;17.32;94.20
3812;BME280;1921;49.368;11.068;2023-08-06T06:41:16;96654.91;;;17.04;94.13
3812;BME280;1921;49.368;11.068;2023-08-06T06:43:42;96709.34;;;17.15;94.25
3812;BME280;1921;49.368;11.068;2023-08-06T06:46:07;96735.53;;;17.22;96.16
3812;BME280;1921;49.368;11.068;2023-08-06T06:48:33;96705.13;;;16.98;97.59
3812;BME280;1921;49.368;11.068;2023-08-06T06:51:00;96730.44;;;17.15;97.70
3812;BME280;1921;49.368;11.068;2023-08-06T06:53:25;96660.97;;;16.54;99.16
3812;BME280;1921;49.368;11.068;2023-08-06T06:56:04;96761.22;;;17.32;100.00
3812;BME280;1921;49.368;11.068;2023-08-06T06:58:31;96643.00;;;16.34;100.00
3812;BME280;1921;49.368;11.068;2023-08-06T07:00:57;96572.41;;;16.31;100.00
3812;BME280;1921;49.368;11.068;2023-08-06T07:03:23;96626.88;;;16.64;100.00
3812;BME280;1921;49.368;11.068;2023-08-06T07:05:49;96724.97;;;17.39;100.00
3812;BME280;1921;49.368;11.068;2023-08-06T07:08:15;96732.66;;;17.79;100.00
3812;BME280;1921;49.368;11.068;2023-08-06T07:10:42;96687.75;;;17.74;100.00
3812;BME280;1921;49.368;11.068;2023-08-06T07:13:09;96679.84;;;17.74;98.94
3812;BME280;1921;49.368;11.068;2023-08-06T07:15:34;96716.22;;;18.16;99.76
3812;BME280;1921;49.368;11.068;2023-08-06T07:18:01;96744.84;;;18.51;97.44
3812;BME280;1921;49.368;11.068;2023-08-06T07:20:27;96770.81;;;18.86;98.99
3812;BME280;1921;49.368;11.068;2023-08-06T07:22:57;96671.13;;;18.49;95.16
3812;BME280;1921;49.368;11.068;2023-08-06T07:25:23;96739.00;;;19.03;91.21
3812;BME280;1921;49.368;11.068;2023-08-06T07:27:49;96716.69;;;18.89;91.87
3812;BME280;1921;49.368;11.068;2023-08-06T07:30:15;96566.63;;;17.89;92.38
3812;BME280;1921;49.368;11.068;2023-08-06T07:32:41;96529.31;;;17.54;92.19
3812;BME280;1921;49.368;11.068;2023-08-06T07:35:07;96593.47;;;17.86;93.83
3812;BME280;1921;49.368;11.068;2023-08-06T07:37:35;96602.84;;;17.99;91.41
3812;BME280;1921;49.368;11.068;2023-08-06T07:40:00;96562.56;;;17.82;89.65
3812;BME280;1921;49.368;11.068;2023-08-06T07:42:26;96398.56;;;16.77;90.37
3812;BME280;1921;49.368;11.068;2023-08-06T07:44:58;96491.22;;;17.44;92.44
3812;BME280;1921;49.368;11.068;2023-08-06T07:47:24;96688.00;;;18.70;92.13
3812;BME280;1921;49.368;11.068;2023-08-06T07:49:50;96605.91;;;18.45;88.38
3812;BME280;1921;49.368;11.068;2023-08-06T07:52:16;96609.59;;;18.76;90.00
3812;BME280;1921;49.368;11.068;2023-08-06T07:54:42;96723.03;;;19.67;89.91
3812;BME280;1921;49.368;11.068;2023-08-06T07:57:16;96719.94;;;19.85;90.71
3812;BME280;1921;49.368;11.068;2023-08-06T08:00:10;96699.34;;;19.87;86.74
3812;BME280;1921;49.368;11.068;2023-08-06T08:02:36;96656.34;;;19.60;87.74
3812;BME280;1921;49.368;11.068;2023-08-06T08:05:02;96598.78;;;19.30;87.04
3812;BME280;1921;49.368;11.068;2023-08-06T08:07:28;96658.50;;;19.73;84.27
3812;BME280;1921;49.368;11.068;2023-08-06T08:09:56;96705.75;;;20.07;87.07
3812;BME280;1921;49.368;11.068;2023-08-06T08:12:22;96572.34;;;20.13;81.68
3812;BME280;1921;49.368;11.068;2023-08-06T08:14:48;96553.56;;;20.60;81.31
3812;BME280;1921;49.368;11.068;2023-08-06T08:17:14;96663.22;;;22.00;82.06
3812;BME280;1921;49.368;11.068;2023-08-06T08:19:40;96693.16;;;22.16;72.74
3812;BME280;1921;49.368;11.068;2023-08-06T08:22:06;96718.00;;;21.81;73.78
3812;BME280;1921;49.368;11.068;2023-08-06T08:24:32;96692.38;;;21.20;73.95
3812;BME280;1921;49.368;11.068;2023-08-06T08:26:58;96688.69;;;20.70;73.26
3812;BME280;1921;49.368;11.068;2023-08-06T08:29:23;96708.75;;;20.41;74.71
3812;BME280;1921;49.368;11.068;2023-08-06T08:31:49;96690.00;;;19.70;75.83
3812;BME280;1921;49.368;11.068;2023-08-06T08:34:19;96709.53;;;19.63;77.74
3812;BME280;1921;49.368;11.068;2023-08-06T08:36:44;96694.06;;;19.45;76.71
3812;BME280;1921;49.368;11.068;2023-08-06T08:39:15;96722.13;;;19.99;77.25
3812;BME280;1921;49.368;11.068;2023-08-06T08:41:41;96692.78;;;20.10;75.02
3812;BME280;1921;49.368;11.068;2023-08-06T08:44:09;96706.00;;;20.10;74.68
3812;BME280;1921;49.368;11.068;2023-08-06T08:46:38;96686.31;;;19.28;77.54
3812;BME280;1921;49.368;11.068;2023-08-06T08:49:06;96680.94;;;18.81;81.50
3812;BME280;1921;49.368;11.068;2023-08-06T08:51:34;96686.47;;;18.25;85.59
3812;BME280;1921;49.368;11.068;2023-08-06T08:54:07;96654.50;;;18.49;87.73
3812;BME280;1921;49.368;11.068;2023-08-06T08:56:34;96700.94;;;19.46;90.36
3812;BME280;1921;49.368;11.068;2023-08-06T08:58:59;96701.16;;;19.82;79.81
3812;BME280;1921;49.368;11.068;2023-08-06T09:01:26;96723.63;;;19.79;80.12
3812;BME280;1921;49.368;11.068;2023-08-06T09:03:54;96675.28;;;19.94;79.24
3812;BME280;1921;49.368;11.068;2023-08-06T09:06:20;96684.84;;;20.15;77.52
3812;BME280;1921;49.368;11.068;2023-08-06T09:09:06;96649.06;;;19.87;74.09
3812;BME280;1921;49.368;11.068;2023-08-06T09:11:43;96714.78;;;20.16;76.56
3812;BME280;1921;49.368;11.068;2023-08-06T09:14:11;96637.91;;;19.80;73.00
3812;BME280;1921;49.368;11.068;2023-08-06T09:16:37;96683.84;;;20.37;71.81
3812;BME280;1921;49.368;11.068;2023-08-06T09:19:11;96703.53;;;20.72;70.77
3812;BME280;1921;49.368;11.068;2023-08-06T09:21:45;96682.03;;;21.19;69.83
3812;BME280;1921;49.368;11.068;2023-08-06T09:24:14;96659.84;;;21.80;70.22
3812;BME280;1921;49.368;11.068;2023-08-06T09:26:43;96667.72;;;22.89;64.73
3812;BME280;1921;49.368;11.068;2023-08-06T09:29:10;96709.94;;;24.25;61.57
3812;BME280;1921;49.368;11.068;2023-08-06T09:31:44;96699.97;;;24.55;56.87
3812;BME280;1921;49.368;11.068;2023-08-06T09:34:21;96647.84;;;24.06;56.29
3812;BME280;1921;49.368;11.068;2023-08-06T09:36:56;96681.13;;;23.60;56.78
3812;BME280;1921;49.368;11.068;2023-08-06T09:39:28;96693.22;;;23.24;60.23
3812;BME280;1921;49.368;11.068;2023-08-06T09:42:00;96666.09;;;22.53;62.48
3812;BME280;1921;49.368;11.068;2023-08-06T09:44:28;96663.84;;;21.77;63.32
3812;BME280;1921;49.368;11.068;2023-08-06T09:47:03;96645.59;;;21.65;67.51
3812;BME280;1921;49.368;11.068;2023-08-06T09:49:49;96659.44;;;21.47;65.23
3812;BME280;1921;49.368;11.068;2023-08-06T09:52:17;96660.44;;;21.61;66.08
3812;BME280;1921;49.368;11.068;2023-08-06T09:54:44;96649.19;;;21.00;65.89
3812;BME280;1921;49.368;11.068;2023-08-06T09:57:12;96638.59;;;20.74;64.37
3812;BME280;1921;49.368;11.068;2023-08-06T09:59:39;96658.72;;;20.95;66.33
3812;BME280;1921;49.368;11.068;2023-08-06T10:02:13;96655.56;;;20.63;66.81
3812;BME280;1921;49.368;11.068;2023-08-06T10:04:40;96657.41;;;20.47;65.70
3812;BME280;1921;49.368;11.068;2023-08-06T10:07:07;96684.06;;;20.15;66.40
3812;BME280;1921;49.368;11.068;2023-08-06T10:09:33;96667.38;;;20.09;67.68
3812;BME280;1921;49.368;11.068;2023-08-06T10:12:00;96640.38;;;20.23;67.54
3812;BME280;1921;49.368;11.068;2023-08-06T10:14:33;96600.63;;;19.92;65.77
3812;BME280;1921;49.368;11.068;2023-08-06T10:17:01;96638.81;;;20.37;66.88
3812;BME280;1921;49.368;11.068;2023-08-06T10:19:27;96645.19;;;21.02;63.85
3812;BME280;1921;49.368;11.068;2023-08-06T10:22:10;96686.44;;;21.74;62.71
3812;BME280;1921;49.368;11.068;2023-08-06T10:24:57;96628.19;;;21.34;61.93
3812;BME280;1921;49.368;11.068;2023-08-06T10:27:40;96664.75;;;21.52;62.52
3812;BME280;1921;49.368;11.068;2023-08-06T10:30:32;96666.38;;;21.43;62.07
3812;BME280;1921;49.368;11.068;2023-08-06T10:33:02;96623.78;;;20.63;64.78
3812;BME280;1921;49.368;11.068;2023-08-06T10:35:42;96695.50;;;20.41;67.54
3812;BME280;1921;49.368;11.068;2023-08-06T10:38:20;96635.88;;;19.40;75.03
3812;BME280;1921;49.368;11.068;2023-08-06T10:43:34;96642.34;;;19.17;75.51
3812;BME280;1921;49.368;11.068;2023-08-06T10:46:10;96695.56;;;19.73;73.53
3812;BME280;1921;49.368;11.068;2023-08-06T10:48:39;96652.53;;;20.03;71.45
3812;BME280;1921;49.368;11.068;2023-08-06T10:51:14;96590.13;;;20.58;68.30
3812;BME280;1921;49.368;11.068;2023-08-06T10:53:46;96651.53;;;21.27;64.88
3812;BME280;1921;49.368;11.068;2023-08-06T10:56:17;96620.84;;;20.90;66.31
3812;BME280;1921;49.368;11.068;2023-08-06T10:58:45;96645.72;;;21.14;66.80
3812;BME280;1921;49.368;11.068;2023-08-06T11:01:11;96657.66;;;21.07;68.13
3812;BME280;1921;49.368;11.068;2023-08-06T11:03:38;96627.66;;;20.09;75.40
3812;BME280;1921;49.368;11.068;2023-08-06T11:06:06;96483.06;;;18.37;80.66
3812;BME280;1921;49.368;11.068;2023-08-06T11:08:40;96632.06;;;18.78;85.76
3812;BME280;1921;49.368;11.068;2023-08-06T11:11:15;96640.31;;;18.87;90.21
3812;BME280;1921;49.368;11.068;2023-08-06T11:13:46;96658.00;;;18.87;90.54
3812;BME280;1921;49.368;11.068;2023-08-06T11:16:23;96661.50;;;18.65;90.60
3812;BME280;1921;49.368;11.068;2023-08-06T11:18:50;96632.78;;;18.69;93.11
3812;BME280;1921;49.368;11.068;2023-08-06T11:21:20;96671.34;;;19.02;95.67
3812;BME280;1921;49.368;11.068;2023-08-06T11:23:46;96657.59;;;19.47;92.44
3812;BME280;1921;49.368;11.068;2023-08-06T11:26:12;96645.97;;;19.53;87.65
3812;BME280;1921;49.368;11.068;2023-08-06T11:28:38;96611.41;;;19.65;87.70
3812;BME280;1921;49.368;11.068;2023-08-06T11:31:03;96621.22;;;19.80;84.34
3812;BME280;1921;49.368;11.068;2023-08-06T11:33:30;96613.38;;;20.15;80.79
3812;BME280;1921;49.368;11.068;2023-08-06T11:35:58;96563.34;;;20.39;78.12
3812;BME280;1921;49.368;11.068;2023-08-06T11:38:26;96602.50;;;21.09;76.31
3812;BME280;1921;49.368;11.068;2023-08-06T11:40:52;96593.00;;;21.72;69.93
3812;BME280;1921;49.368;11.068;2023-08-06T11:43:19;96593.44;;;21.90;66.61
3812;BME280;1921;49.368;11.068;2023-08-06T11:45:51;96557.00;;;21.56;66.00
3812;BME280;1921;49.368;11.068;2023-08-06T11:48:19;96636.94;;;21.99;69.00
3812;BME280;1921;49.368;11.068;2023-08-06T11:50:45;96620.34;;;21.73;65.98
3812;BME280;1921;49.368;11.068;2023-08-06T11:53:13;96613.94;;;22.28;64.90
3812;BME280;1921;49.368;11.068;2023-08-06T11:55:40;96631.84;;;22.52;62.04
3812;BME280;1921;49.368;11.068;2023-08-06T11:58:06;96590.69;;;22.49;60.77
3812;BME280;1921;49.368;11.068;2023-08-06T12:00:32;96597.88;;;22.49;60.69
3812;BME280;1921;49.368;11.068;2023-08-06T12:02:58;96603.03;;;22.64;57.48
3812;BME280;1921;49.368;11.068;2023-08-06T12:05:30;96581.06;;;22.53;59.16
3812;BME280;1921;49.368;11.068;2023-08-06T12:07:59;96622.66;;;22.34;59.87
3812;BME280;1921;49.368;11.068;2023-08-06T12:10:27;96650.38;;;21.63;71.79
3812;BME280;1921;49.368;11.068;2023-08-06T12:12:53;96581.88;;;20.09;78.97
3812;BME280;1921;49.368;11.068;2023-08-06T12:15:20;96637.22;;;20.21;82.58
3812;BME280;1921;49.368;11.068;2023-08-06T12:17:46;96600.13;;;20.31;87.46
3812;BME280;1921;49.368;11.068;2023-08-06T12:20:12;96658.19;;;20.98;84.19
3812;BME280;1921;49.368;11.068;2023-08-06T12:22:38;96567.03;;;20.74;82.47
3812;BME280;1921;49.368;11.068;2023-08-06T12:25:11;96653.56;;;21.55;75.90
3812;BME280;1921;49.368;11.068;2023-08-06T12:27:40;96594.84;;;21.02;72.73
3812;BME280;1921;49.368;11.068;2023-08-06T12:30:07;96558.34;;;20.58;75.26
3812;BME280;1921;49.368;11.068;2023-08-06T12:32:34;96619.75;;;21.06;73.78
3812;BME280;1921;49.368;11.068;2023-08-06T12:35:00;96606.28;;;20.67;71.49
3812;BME280;1921;49.368;11.068;2023-08-06T12:37:26;96576.56;;;20.29;73.09
3812;BME280;1921;49.368;11.068;2023-08-06T12:39:52;96591.41;;;20.15;71.48
3812;BME280;1921;49.368;11.068;2023-08-06T12:42:18;96624.75;;;20.16;75.47
3812;BME280;1921;49.368;11.068;2023-08-06T12:44:44;96632.13;;;19.88;73.71
3812;BME280;1921;49.368;11.068;2023-08-06T12:47:10;96657.63;;;20.25;74.44
3812;BME280;1921;49.368;11.068;2023-08-06T12:49:36;96654.25;;;20.76;71.76
3812;BME280;1921;49.368;11.068;2023-08-06T12:52:02;96625.84;;;20.86;70.37
3812;BME280;1921;49.368;11.068;2023-08-06T12:54:30;96634.38;;;20.63;70.09
3812;BME280;1921;49.368;11.068;2023-08-06T12:57:02;96633.78;;;20.40;71.02
3812;BME280;1921;49.368;11.068;2023-08-06T12:59:28;96669.00;;;20.31;73.18
3812;BME280;1921;49.368;11.068;2023-08-06T13:01:54;96631.78;;;19.70;77.64
3812;BME280;1921;49.368;11.068;2023-08-06T13:04:20;96634.50;;;19.37;77.92
3812;BME280;1921;49.368;11.068;2023-08-06T13:06:46;96634.03;;;18.98;80.14
3812;BME280;1921;49.368;11.068;2023-08-06T13:09:13;96652.53;;;18.98;79.67
3812;BME280;1921;49.368;11.068;2023-08-06T13:11:39;96652.91;;;19.17;78.66
3812;BME280;1921;49.368;11.068;2023-08-06T13:14:10;96653.81;;;19.33;78.22
3812;BME280;1921;49.368;11.068;2023-08-06T13:16:38;96641.47;;;19.01;76.51